createdAt,value
2023-03-03T00:00:52.262Z,54.77
2023-03-03T00:03:22.341Z,55.05
2023-03-03T00:05:50.689Z,55.07
2023-03-03T00:08:19.256Z,55.00
2023-03-03T00:10:47.157Z,54.96
2023-03-03T00:13:23.208Z,55.15
2023-03-03T00:15:51.880Z,55.06
2023-03-03T00:18:24.082Z,55.29
2023-03-03T00:20:55.446Z,55.48
2023-03-03T00:23:40.537Z,55.63
2023-03-03T00:26:21.052Z,56.21
2023-03-03T00:28:54.576Z,56.37
2023-03-03T00:31:29.765Z,56.52
2023-03-03T00:34:20.261Z,56.91
2023-03-03T00:36:49.647Z,57.11
2023-03-03T00:39:34.126Z,57.43
2023-03-03T00:42:05.304Z,57.52
2023-03-03T00:44:45.636Z,57.30
2023-03-03T00:47:33.879Z,57.39
2023-03-03T00:50:07.363Z,56.87
2023-03-03T00:52:40.112Z,56.96
2023-03-03T00:55:07.780Z,56.58
2023-03-03T00:57:35.766Z,56.72
2023-03-03T01:00:05.321Z,56.63
2023-03-03T01:02:33.169Z,56.69
2023-03-03T01:05:01.032Z,56.58
2023-03-03T01:07:28.369Z,56.72
2023-03-03T01:09:55.729Z,55.97
2023-03-03T01:12:24.289Z,55.83
2023-03-03T01:14:53.024Z,56.09
2023-03-03T01:17:20.539Z,55.98
2023-03-03T01:19:48.313Z,56.28
2023-03-03T01:22:16.053Z,56.66
2023-03-03T01:24:43.452Z,56.83
2023-03-03T01:27:11.371Z,56.81
2023-03-03T01:29:38.880Z,56.92
2023-03-03T01:32:06.423Z,57.17
2023-03-03T01:34:34.120Z,57.22
2023-03-03T01:37:01.575Z,57.36
2023-03-03T01:39:28.910Z,57.52
2023-03-03T01:41:56.761Z,57.02
2023-03-03T01:44:24.197Z,57.13
2023-03-03T01:46:55.774Z,56.68
2023-03-03T01:49:29.738Z,57.07
2023-03-03T01:52:00.135Z,57.47
2023-03-03T01:54:30.628Z,57.45
2023-03-03T01:57:01.581Z,57.75
2023-03-03T01:59:32.357Z,57.80
2023-03-03T02:01:59.779Z,57.38
2023-03-03T02:04:28.837Z,57.30
2023-03-03T02:07:01.865Z,57.16
2023-03-03T02:09:51.075Z,57.22
2023-03-03T02:12:20.937Z,57.34
2023-03-03T02:14:48.324Z,56.90
2023-03-03T02:17:16.402Z,57.21
2023-03-03T02:19:49.108Z,57.13
2023-03-03T02:22:18.563Z,56.65
2023-03-03T02:24:59.065Z,56.35
2023-03-03T02:27:28.224Z,56.86
2023-03-03T02:29:55.923Z,56.87
2023-03-03T02:32:23.400Z,56.71
2023-03-03T02:34:52.477Z,56.85
2023-03-03T02:37:20.815Z,56.88
2023-03-03T02:39:48.225Z,57.33
2023-03-03T02:42:20.460Z,57.25
2023-03-03T02:44:49.131Z,57.34
2023-03-03T02:47:16.746Z,57.14
2023-03-03T02:49:45.195Z,57.30
2023-03-03T02:52:14.728Z,57.43
2023-03-03T02:54:42.609Z,57.52
2023-03-03T02:57:10.084Z,57.65
2023-03-03T02:59:37.821Z,57.82
2023-03-03T03:02:07.335Z,57.62
2023-03-03T03:04:35.773Z,57.76
2023-03-03T03:07:04.744Z,58.63
2023-03-03T03:09:32.670Z,58.43
2023-03-03T03:12:02.475Z,58.19
2023-03-03T03:14:31.017Z,58.10
2023-03-03T03:16:59.256Z,58.70
2023-03-03T03:19:28.168Z,58.52
2023-03-03T03:21:56.133Z,58.30
2023-03-03T03:24:23.714Z,58.16
2023-03-03T03:26:52.397Z,58.17
2023-03-03T03:29:20.153Z,58.29
2023-03-03T03:31:47.938Z,58.13
2023-03-03T03:34:15.364Z,57.88
2023-03-03T03:36:46.532Z,57.89
2023-03-03T03:39:14.397Z,58.32
2023-03-03T03:41:42.442Z,58.30
2023-03-03T03:44:10.218Z,58.28
2023-03-03T03:46:38.175Z,58.18
2023-03-03T03:49:06.380Z,57.88
2023-03-03T03:51:35.562Z,58.09
2023-03-03T03:54:03.391Z,58.08
2023-03-03T03:56:31.913Z,58.04
2023-03-03T03:59:00.927Z,57.84
2023-03-03T04:01:28.742Z,57.74
2023-03-03T04:03:57.249Z,58.03
2023-03-03T04:06:25.335Z,58.25
2023-03-03T04:08:53.033Z,58.19
2023-03-03T04:11:21.325Z,57.86
2023-03-03T04:13:48.819Z,57.81
2023-03-03T04:16:16.662Z,57.48
2023-03-03T04:18:46.560Z,57.62
2023-03-03T04:21:15.321Z,57.54
2023-03-03T04:23:43.222Z,57.91
2023-03-03T04:26:11.384Z,58.13
2023-03-03T04:28:39.461Z,58.20
2023-03-03T04:31:07.130Z,58.17
2023-03-03T04:33:35.047Z,58.17
2023-03-03T04:36:03.053Z,58.29
2023-03-03T04:38:30.506Z,57.99
2023-03-03T04:40:58.340Z,58.18
2023-03-03T04:43:26.207Z,58.45
2023-03-03T04:45:54.091Z,58.37
2023-03-03T04:48:21.899Z,58.04
2023-03-03T04:50:49.531Z,57.59
2023-03-03T04:53:16.996Z,57.65
2023-03-03T04:55:44.901Z,57.44
2023-03-03T04:58:12.593Z,57.54
2023-03-03T05:00:40.127Z,57.61
2023-03-03T05:03:10.655Z,57.50
2023-03-03T05:05:40.985Z,57.60
2023-03-03T05:08:08.630Z,57.68
2023-03-03T05:10:36.028Z,57.83
2023-03-03T05:13:03.507Z,57.75
2023-03-03T05:15:31.648Z,57.80
2023-03-03T05:17:59.205Z,57.99
2023-03-03T05:20:26.842Z,57.50
2023-03-03T05:22:54.886Z,57.38
2023-03-03T05:25:22.305Z,57.66
2023-03-03T05:27:50.049Z,57.67
2023-03-03T05:30:17.812Z,57.59
2023-03-03T05:32:46.725Z,57.68
2023-03-03T05:35:14.315Z,57.51
2023-03-03T05:37:46.810Z,57.63
2023-03-03T05:40:14.876Z,57.48
2023-03-03T05:42:42.449Z,57.55
2023-03-03T05:45:10.200Z,57.67
2023-03-03T05:47:37.987Z,57.58
2023-03-03T05:50:05.942Z,57.72
2023-03-03T05:52:33.370Z,57.88
2023-03-03T05:55:00.757Z,57.95
2023-03-03T05:57:28.473Z,58.04
2023-03-03T05:59:55.901Z,57.84
2023-03-03T06:02:23.253Z,57.97
2023-03-03T06:04:51.165Z,58.02
2023-03-03T06:07:18.551Z,57.94
2023-03-03T06:09:45.976Z,57.82
2023-03-03T06:12:13.613Z,58.01
2023-03-03T06:14:41.022Z,57.69
2023-03-03T06:17:08.359Z,57.63
2023-03-03T06:19:36.705Z,57.55
2023-03-03T06:22:04.097Z,56.56
2023-03-03T06:24:31.609Z,56.77
2023-03-03T06:26:59.410Z,57.28
2023-03-03T06:29:27.655Z,57.67
2023-03-03T06:31:55.384Z,57.83
2023-03-03T06:34:23.162Z,57.74
2023-03-03T06:36:50.671Z,57.95
2023-03-03T06:39:18.124Z,57.37
2023-03-03T06:41:45.749Z,56.94
2023-03-03T06:44:13.168Z,56.98
2023-03-03T06:46:40.534Z,57.19
2023-03-03T06:49:08.244Z,57.24
2023-03-03T06:51:39.845Z,57.41
2023-03-03T06:54:12.395Z,57.99
2023-03-03T06:56:41.175Z,56.36
2023-03-03T06:59:16.552Z,56.18
2023-03-03T07:01:45.973Z,56.51
2023-03-03T07:04:19.523Z,57.04
2023-03-03T07:06:47.215Z,56.75
2023-03-03T07:09:24.053Z,56.22
2023-03-03T07:11:52.902Z,56.83
2023-03-03T07:14:21.190Z,56.43
2023-03-03T07:16:54.975Z,56.49
2023-03-03T07:19:34.950Z,55.88
2023-03-03T07:22:16.918Z,56.32
2023-03-03T07:24:53.211Z,56.57
2023-03-03T07:27:24.994Z,65.01
2023-03-03T07:29:56.245Z,60.13
2023-03-03T07:32:40.440Z,58.56
2023-03-03T07:35:25.631Z,57.15
2023-03-03T07:37:53.044Z,55.03
2023-03-03T07:40:45.000Z,54.43
2023-03-03T07:43:28.464Z,53.55
2023-03-03T07:46:14.986Z,53.07
2023-03-03T07:48:42.874Z,53.51
2023-03-03T07:51:22.593Z,54.25
2023-03-03T07:53:50.259Z,53.97
2023-03-03T07:56:28.714Z,53.76
2023-03-03T07:58:57.468Z,53.42
2023-03-03T08:01:43.888Z,53.72
2023-03-03T08:04:38.180Z,54.07
2023-03-03T08:07:12.277Z,53.80
2023-03-03T08:10:01.833Z,53.16
2023-03-03T08:12:39.218Z,52.89
2023-03-03T08:15:20.422Z,53.41
2023-03-03T08:17:48.863Z,53.62
2023-03-03T08:20:34.705Z,53.44
2023-03-03T08:23:02.094Z,53.13
2023-03-03T08:25:29.846Z,52.50
2023-03-03T08:27:57.238Z,52.36
2023-03-03T08:30:24.642Z,52.41
2023-03-03T08:32:52.342Z,51.75
2023-03-03T08:35:19.946Z,51.51
2023-03-03T08:37:47.325Z,51.92
2023-03-03T08:40:15.191Z,51.06
2023-03-03T08:42:42.537Z,51.45
2023-03-03T08:45:09.957Z,52.16
2023-03-03T08:47:38.790Z,52.09
2023-03-03T08:50:06.633Z,51.79
2023-03-03T08:52:34.362Z,52.62
2023-03-03T08:55:02.693Z,52.45
2023-03-03T08:57:30.129Z,51.74
2023-03-03T08:59:57.647Z,52.08
2023-03-03T09:02:25.280Z,51.88
2023-03-03T09:04:52.745Z,50.04
2023-03-03T09:07:20.173Z,49.88
2023-03-03T09:09:47.818Z,51.52
2023-03-03T09:12:21.547Z,51.32
2023-03-03T09:14:51.088Z,50.79
2023-03-03T09:17:33.293Z,50.29
2023-03-03T09:20:03.289Z,50.14
2023-03-03T09:22:36.792Z,49.98
2023-03-03T09:25:19.218Z,50.05
2023-03-03T09:27:46.594Z,50.05
2023-03-03T09:30:26.447Z,50.24
2023-03-03T09:32:56.660Z,50.92
2023-03-03T09:35:38.710Z,50.81
2023-03-03T09:38:27.561Z,50.56
2023-03-03T09:41:04.349Z,51.00
2023-03-03T09:44:01.101Z,50.42
2023-03-03T09:46:43.585Z,50.53
2023-03-03T09:49:27.664Z,51.05
2023-03-03T09:51:58.217Z,50.12
2023-03-03T09:54:34.161Z,49.34
2023-03-03T09:57:22.506Z,48.88
2023-03-03T10:00:08.549Z,49.34
2023-03-03T10:02:52.958Z,49.28
2023-03-03T10:05:36.267Z,48.73
2023-03-03T10:08:18.060Z,48.26
2023-03-03T10:11:02.058Z,46.39
2023-03-03T10:13:47.543Z,46.31
2023-03-03T10:17:06.382Z,46.48
2023-03-03T10:20:00.202Z,46.32
2023-03-03T10:22:39.476Z,45.70
2023-03-03T10:25:37.776Z,44.91
2023-03-03T10:28:13.603Z,45.35
2023-03-03T10:30:58.228Z,45.51
2023-03-03T10:33:40.831Z,44.84
2023-03-03T10:36:41.580Z,44.28
2023-03-03T10:39:21.281Z,44.05
2023-03-03T10:42:22.422Z,43.59
2023-03-03T10:45:05.310Z,43.24
2023-03-03T10:47:44.724Z,43.07
2023-03-03T10:50:21.654Z,43.09
2023-03-03T10:52:58.951Z,41.98
2023-03-03T10:55:42.624Z,42.56
2023-03-03T10:58:32.430Z,42.93
2023-03-03T11:01:06.794Z,42.12
2023-03-03T11:03:49.937Z,42.32
2023-03-03T11:06:36.509Z,43.92
2023-03-03T11:09:15.534Z,43.52
2023-03-03T11:11:55.535Z,43.05
2023-03-03T11:14:35.637Z,43.11
2023-03-03T11:17:05.736Z,43.12
2023-03-03T11:19:52.746Z,42.76
2023-03-03T11:22:39.820Z,42.52
2023-03-03T11:25:23.598Z,43.89
2023-03-03T11:28:12.681Z,43.02
2023-03-03T11:31:07.550Z,43.35
2023-03-03T11:33:51.910Z,43.81
2023-03-03T11:36:32.326Z,43.32
2023-03-03T11:39:12.098Z,43.57
2023-03-03T11:41:51.499Z,42.90
2023-03-03T11:44:27.623Z,43.28
2023-03-03T11:47:19.394Z,43.09
2023-03-03T11:49:51.676Z,43.11
2023-03-03T11:52:49.042Z,43.32
2023-03-03T11:55:34.057Z,42.75
2023-03-03T11:58:14.439Z,43.31
2023-03-03T12:00:48.442Z,43.46
2023-03-03T12:03:30.698Z,43.11
2023-03-03T12:06:13.384Z,42.70
2023-03-03T12:08:55.993Z,43.13
2023-03-03T12:11:31.790Z,42.81
2023-03-03T12:14:18.256Z,42.91
2023-03-03T12:16:55.004Z,42.81
2023-03-03T12:19:32.018Z,42.87
2023-03-03T12:22:17.580Z,42.11
2023-03-03T12:25:03.798Z,42.05
2023-03-03T12:27:49.076Z,42.35
2023-03-03T12:30:27.148Z,41.85
2023-03-03T12:33:12.857Z,42.22
2023-03-03T12:35:58.074Z,41.52
2023-03-03T12:38:28.536Z,40.98
2023-03-03T12:41:21.629Z,40.29
2023-03-03T12:44:01.211Z,40.10
2023-03-03T12:46:56.883Z,39.99
2023-03-03T12:49:42.775Z,39.94
2023-03-03T12:52:26.748Z,40.60
2023-03-03T12:55:30.170Z,39.58
2023-03-03T12:58:28.890Z,39.82
2023-03-03T13:01:17.674Z,39.85
2023-03-03T13:04:05.197Z,39.54
2023-03-03T13:06:44.861Z,39.60
2023-03-03T13:09:54.079Z,40.68
2023-03-03T13:12:36.050Z,40.19
2023-03-03T13:15:33.284Z,39.68
2023-03-03T13:18:25.320Z,40.09
2023-03-03T13:21:02.220Z,41.02
2023-03-03T13:23:38.389Z,41.03
2023-03-03T13:26:33.725Z,40.66
2023-03-03T13:29:10.548Z,41.08
2023-03-03T13:31:47.885Z,42.05
2023-03-03T13:34:24.626Z,41.00
2023-03-03T13:37:32.411Z,41.61
2023-03-03T13:40:20.125Z,41.84
2023-03-03T13:42:52.302Z,41.96
2023-03-03T13:45:32.937Z,41.80
2023-03-03T13:48:03.904Z,41.81
2023-03-03T13:50:53.993Z,40.67
2023-03-03T13:53:52.187Z,41.29
2023-03-03T13:56:33.326Z,41.15
2023-03-03T13:59:18.471Z,40.75
2023-03-03T14:02:01.778Z,40.50
2023-03-03T14:04:35.471Z,39.84
2023-03-03T14:07:14.446Z,39.18
2023-03-03T14:09:44.115Z,39.46
2023-03-03T14:12:38.974Z,39.29
2023-03-03T14:15:23.691Z,39.09
2023-03-03T14:18:03.936Z,38.46
2023-03-03T14:20:34.851Z,38.98
2023-03-03T14:23:04.359Z,38.68
2023-03-03T14:25:52.806Z,39.06
2023-03-03T14:28:31.213Z,38.86
2023-03-03T14:31:14.927Z,38.64
2023-03-03T14:33:44.710Z,38.77
2023-03-03T14:36:13.291Z,38.81
2023-03-03T14:38:44.796Z,38.65
2023-03-03T14:41:12.348Z,38.46
2023-03-03T14:43:41.791Z,38.46
2023-03-03T14:46:44.841Z,38.97
2023-03-03T14:49:30.747Z,39.08
2023-03-03T14:52:22.398Z,39.11
2023-03-03T14:54:55.631Z,39.01
2023-03-03T14:57:51.197Z,38.98
2023-03-03T15:00:22.137Z,38.46
2023-03-03T15:02:52.252Z,38.43
2023-03-03T15:05:28.025Z,38.89
2023-03-03T15:08:03.254Z,39.09
2023-03-03T15:10:39.215Z,39.25
2023-03-03T15:13:22.006Z,39.99
2023-03-03T15:16:00.954Z,39.40
2023-03-03T15:18:30.058Z,39.73
2023-03-03T15:21:05.890Z,39.18
2023-03-03T15:23:33.192Z,39.50
2023-03-03T15:26:06.554Z,39.70
2023-03-03T15:28:52.402Z,39.67
2023-03-03T15:31:32.140Z,38.96
2023-03-03T15:34:12.592Z,39.64
2023-03-03T15:36:55.549Z,39.29
2023-03-03T15:39:47.292Z,39.70
2023-03-03T15:42:43.316Z,39.30
2023-03-03T15:45:31.701Z,39.08
2023-03-03T15:48:43.884Z,39.37
2023-03-03T15:51:31.360Z,39.78
2023-03-03T15:53:58.938Z,39.87
2023-03-03T15:56:26.293Z,39.84
2023-03-03T15:59:18.468Z,40.06
2023-03-03T16:01:57.436Z,40.11
2023-03-03T16:04:29.487Z,39.85
2023-03-03T16:07:06.026Z,39.82
2023-03-03T16:09:39.852Z,39.67
2023-03-03T16:12:28.761Z,40.03
2023-03-03T16:15:21.932Z,40.16
2023-03-03T16:18:11.358Z,39.98
2023-03-03T16:20:52.546Z,39.85
2023-03-03T16:23:32.316Z,39.82
2023-03-03T16:26:30.350Z,39.69
2023-03-03T16:29:36.086Z,39.55
2023-03-03T16:32:12.592Z,39.72
2023-03-03T16:34:48.671Z,39.78
2023-03-03T16:37:40.798Z,39.90
2023-03-03T16:40:13.716Z,39.65
2023-03-03T16:42:44.624Z,40.22
2023-03-03T16:45:25.213Z,39.93
2023-03-03T16:48:08.260Z,39.38
2023-03-03T16:50:54.272Z,39.50
2023-03-03T16:53:40.903Z,39.54
2023-03-03T16:56:17.222Z,39.40
2023-03-03T16:59:11.381Z,39.70
2023-03-03T17:02:12.026Z,39.77
2023-03-03T17:04:59.110Z,39.91
2023-03-03T17:07:56.070Z,39.91
2023-03-03T17:10:28.183Z,39.90
2023-03-03T17:13:01.958Z,40.61
2023-03-03T17:15:46.408Z,40.86
2023-03-03T17:18:45.061Z,41.37
2023-03-03T17:21:36.737Z,41.42
2023-03-03T17:24:25.678Z,42.09
2023-03-03T17:27:18.679Z,41.81
2023-03-03T17:29:51.997Z,42.41
2023-03-03T17:32:22.684Z,42.27
2023-03-03T17:35:21.345Z,42.49
2023-03-03T17:38:10.984Z,42.31
2023-03-03T17:40:41.362Z,42.12
2023-03-03T17:43:39.233Z,42.26
2023-03-03T17:46:15.032Z,42.36
2023-03-03T17:48:58.061Z,42.27
2023-03-03T17:52:04.621Z,42.28
2023-03-03T17:54:44.008Z,42.42
2023-03-03T17:57:26.880Z,42.32
2023-03-03T18:00:17.014Z,42.71
2023-03-03T18:03:18.357Z,43.44
2023-03-03T18:06:04.110Z,43.05
2023-03-03T18:08:46.683Z,42.94
2023-03-03T18:11:29.568Z,43.04
2023-03-03T18:14:02.656Z,42.92
2023-03-03T18:16:41.106Z,42.92
2023-03-03T18:19:39.790Z,43.12
2023-03-03T18:22:11.718Z,43.70
2023-03-03T18:24:54.670Z,43.75
2023-03-03T18:27:24.910Z,43.65
2023-03-03T18:30:07.623Z,43.77
2023-03-03T18:32:40.355Z,43.89
2023-03-03T18:35:32.902Z,44.01
2023-03-03T18:38:15.839Z,44.57
2023-03-03T18:41:11.117Z,44.70
2023-03-03T18:43:44.650Z,45.29
2023-03-03T18:46:22.611Z,45.38
2023-03-03T18:49:06.254Z,45.23
2023-03-03T18:51:37.050Z,45.29
2023-03-03T18:54:21.879Z,45.37
2023-03-03T18:56:59.916Z,45.32
2023-03-03T18:59:36.340Z,45.58
2023-03-03T19:02:12.810Z,46.02
2023-03-03T19:04:45.779Z,46.01
2023-03-03T19:07:29.672Z,45.96
2023-03-03T19:10:02.728Z,46.18
2023-03-03T19:12:57.897Z,46.41
2023-03-03T19:15:31.977Z,47.40
2023-03-03T19:18:15.004Z,46.65
2023-03-03T19:20:45.698Z,46.50
2023-03-03T19:23:22.677Z,46.53
2023-03-03T19:26:30.432Z,46.10
2023-03-03T19:29:07.102Z,46.53
2023-03-03T19:31:45.587Z,46.76
2023-03-03T19:34:45.917Z,46.78
2023-03-03T19:37:40.880Z,47.12
2023-03-03T19:40:14.277Z,47.23
2023-03-03T19:42:47.591Z,47.28
2023-03-03T19:45:18.214Z,47.02
2023-03-03T19:47:56.107Z,47.09
2023-03-03T19:50:33.220Z,46.91
2023-03-03T19:53:25.324Z,47.25
2023-03-03T19:56:18.522Z,47.48
2023-03-03T19:59:04.766Z,47.73
2023-03-03T20:01:51.211Z,48.21
2023-03-03T20:04:42.926Z,47.80
2023-03-03T20:07:17.554Z,48.10
2023-03-03T20:09:47.852Z,48.09
2023-03-03T20:12:24.340Z,48.27
2023-03-03T20:15:01.973Z,48.30
2023-03-03T20:17:51.065Z,48.34
2023-03-03T20:20:43.479Z,48.43
2023-03-03T20:23:32.895Z,48.47
2023-03-03T20:26:14.566Z,48.53
2023-03-03T20:28:48.118Z,48.70
2023-03-03T20:31:35.995Z,48.71
2023-03-03T20:34:18.633Z,49.42
2023-03-03T20:36:58.918Z,49.08
2023-03-03T20:39:50.772Z,49.22
2023-03-03T20:42:33.167Z,48.44
2023-03-03T20:45:52.750Z,48.29
2023-03-03T20:48:57.985Z,48.32
2023-03-03T20:51:46.808Z,48.52
2023-03-03T20:54:23.297Z,48.36
2023-03-03T20:56:59.991Z,48.17
2023-03-03T20:59:35.673Z,47.93
2023-03-03T21:02:18.370Z,47.78
2023-03-03T21:04:46.040Z,47.53
2023-03-03T21:07:24.731Z,47.41
2023-03-03T21:10:23.974Z,47.39
2023-03-03T21:12:55.976Z,46.95
2023-03-03T21:15:25.458Z,47.12
2023-03-03T21:17:54.917Z,46.88
2023-03-03T21:20:25.231Z,46.61
2023-03-03T21:22:53.157Z,46.53
2023-03-03T21:25:45.333Z,46.20
2023-03-03T21:28:20.552Z,46.25
2023-03-03T21:31:16.791Z,46.13
2023-03-03T21:33:52.612Z,46.62
2023-03-03T21:36:32.222Z,46.86
2023-03-03T21:39:02.148Z,47.10
2023-03-03T21:41:50.855Z,47.30
2023-03-03T21:44:30.768Z,47.27
2023-03-03T21:46:58.727Z,47.43
2023-03-03T21:49:26.678Z,47.36
2023-03-03T21:51:57.642Z,47.53
2023-03-03T21:54:25.106Z,47.52
2023-03-03T21:56:53.193Z,47.66
2023-03-03T21:59:20.639Z,47.80
2023-03-03T22:02:04.105Z,47.95
2023-03-03T22:04:35.322Z,48.19
2023-03-03T22:07:02.751Z,48.37
2023-03-03T22:09:30.200Z,48.00
2023-03-03T22:11:57.898Z,48.06
2023-03-03T22:14:25.246Z,48.33
2023-03-03T22:16:52.837Z,48.11
2023-03-03T22:19:20.567Z,48.73
2023-03-03T22:21:49.633Z,48.74
2023-03-03T22:24:17.862Z,48.57
2023-03-03T22:26:45.494Z,48.50
2023-03-03T22:29:13.001Z,54.27
2023-03-03T22:31:40.440Z,48.63
2023-03-03T22:34:08.534Z,48.20
2023-03-03T22:36:35.910Z,48.51
2023-03-03T22:39:03.366Z,48.45
2023-03-03T22:41:31.300Z,48.54
2023-03-03T22:43:58.781Z,48.78
2023-03-03T22:46:26.241Z,49.18
2023-03-03T22:48:53.994Z,49.06
2023-03-03T22:51:24.374Z,49.32
2023-03-03T22:53:51.799Z,49.20
2023-03-03T22:56:19.449Z,49.23
2023-03-03T22:58:46.970Z,49.89
2023-03-03T23:01:14.319Z,50.01
2023-03-03T23:03:41.933Z,49.53
2023-03-03T23:06:09.311Z,49.35
2023-03-03T23:08:36.948Z,49.27
2023-03-03T23:11:04.698Z,49.40
2023-03-03T23:13:32.593Z,49.36
2023-03-03T23:16:00.325Z,48.89
2023-03-03T23:18:28.643Z,49.00
2023-03-03T23:20:56.594Z,49.04
2023-03-03T23:23:24.161Z,49.04
2023-03-03T23:25:51.807Z,49.41
2023-03-03T23:28:19.354Z,49.39
2023-03-03T23:30:46.844Z,49.50
2023-03-03T23:33:14.757Z,49.51
2023-03-03T23:35:42.162Z,49.54
2023-03-03T23:38:15.128Z,49.64
2023-03-03T23:40:42.996Z,49.51
2023-03-03T23:43:10.436Z,49.41
2023-03-03T23:45:37.936Z,49.24
2023-03-03T23:48:06.110Z,49.64
2023-03-03T23:50:37.095Z,49.78
2023-03-03T23:53:05.384Z,49.71
2023-03-03T23:55:33.133Z,50.01
2023-03-03T23:58:00.586Z,50.20
